sensor_id;sensor_type;location;lat;lon;timestamp;P1;durP1;ratioP1;P2;durP2;ratioP2
12958;SDS011;6544;51.666;6.634;2022-08-19T00:01:55;5.60;;;5.03;;
12958;SDS011;6544;51.666;6.634;2022-08-19T00:04:27;6.30;;;4.97;;
12958;SDS011;6544;51.666;6.634;2022-08-19T00:06:56;5.63;;;4.90;;
12958;SDS011;6544;51.666;6.634;2022-08-19T00:09:24;5.75;;;5.25;;
12958;SDS011;6544;51.666;6.634;2022-08-19T00:11:53;9.98;;;5.00;;
12958;SDS011;6544;51.666;6.634;2022-08-19T00:14:21;5.40;;;4.90;;
12958;SDS011;6544;51.666;6.634;2022-08-19T00:16:49;5.90;;;4.93;;
12958;SDS011;6544;51.666;6.634;2022-08-19T00:19:19;7.43;;;4.97;;
12958;SDS011;6544;51.666;6.634;2022-08-19T00:21:47;5.38;;;4.88;;
12958;SDS011;6544;51.666;6.634;2022-08-19T00:24:14;7.55;;;5.07;;
12958;SDS011;6544;51.666;6.634;2022-08-19T00:26:42;6.32;;;5.40;;
12958;SDS011;6544;51.666;6.634;2022-08-19T00:29:12;8.65;;;6.25;;
12958;SDS011;6544;51.666;6.634;2022-08-19T00:31:42;8.60;;;7.80;;
12958;SDS011;6544;51.666;6.634;2022-08-19T00:34:09;9.70;;;7.60;;
12958;SDS011;6544;51.666;6.634;2022-08-19T00:36:36;8.13;;;6.63;;
12958;SDS011;6544;51.666;6.634;2022-08-19T00:39:04;7.72;;;6.50;;
12958;SDS011;6544;51.666;6.634;2022-08-19T00:41:31;11.27;;;7.82;;
12958;SDS011;6544;51.666;6.634;2022-08-19T00:44:00;8.38;;;7.57;;
12958;SDS011;6544;51.666;6.634;2022-08-19T00:46:30;8.88;;;7.03;;
12958;SDS011;6544;51.666;6.634;2022-08-19T00:48:58;10.48;;;8.98;;
12958;SDS011;6544;51.666;6.634;2022-08-19T00:51:27;9.80;;;7.93;;
12958;SDS011;6544;51.666;6.634;2022-08-19T00:53:57;8.63;;;7.78;;
12958;SDS011;6544;51.666;6.634;2022-08-19T00:56:26;11.23;;;9.07;;
12958;SDS011;6544;51.666;6.634;2022-08-19T00:58:53;9.35;;;8.43;;
12958;SDS011;6544;51.666;6.634;2022-08-19T01:01:21;9.40;;;8.43;;
12958;SDS011;6544;51.666;6.634;2022-08-19T01:03:50;10.82;;;8.23;;
12958;SDS011;6544;51.666;6.634;2022-08-19T01:06:17;14.13;;;10.40;;
12958;SDS011;6544;51.666;6.634;2022-08-19T01:08:44;12.60;;;9.02;;
12958;SDS011;6544;51.666;6.634;2022-08-19T01:11:11;11.45;;;8.65;;
12958;SDS011;6544;51.666;6.634;2022-08-19T01:13:38;17.73;;;11.07;;
12958;SDS011;6544;51.666;6.634;2022-08-19T01:16:06;10.85;;;9.75;;
12958;SDS011;6544;51.666;6.634;2022-08-19T01:18:36;17.17;;;9.73;;
12958;SDS011;6544;51.666;6.634;2022-08-19T01:21:09;11.05;;;9.95;;
12958;SDS011;6544;51.666;6.634;2022-08-19T01:23:43;11.63;;;9.52;;
12958;SDS011;6544;51.666;6.634;2022-08-19T01:26:11;14.20;;;11.43;;
12958;SDS011;6544;51.666;6.634;2022-08-19T01:28:40;12.38;;;10.10;;
12958;SDS011;6544;51.666;6.634;2022-08-19T01:31:10;11.35;;;10.18;;
12958;SDS011;6544;51.666;6.634;2022-08-19T01:33:40;14.05;;;9.73;;
12958;SDS011;6544;51.666;6.634;2022-08-19T01:36:07;12.18;;;10.32;;
12958;SDS011;6544;51.666;6.634;2022-08-19T01:38:38;10.73;;;9.70;;
12958;SDS011;6544;51.666;6.634;2022-08-19T01:41:08;12.82;;;11.48;;
12958;SDS011;6544;51.666;6.634;2022-08-19T01:43:36;11.07;;;9.85;;
12958;SDS011;6544;51.666;6.634;2022-08-19T01:46:03;12.43;;;9.85;;
12958;SDS011;6544;51.666;6.634;2022-08-19T01:48:33;12.95;;;9.90;;
12958;SDS011;6544;51.666;6.634;2022-08-19T01:51:01;12.35;;;10.00;;
12958;SDS011;6544;51.666;6.634;2022-08-19T01:53:28;11.15;;;10.07;;
12958;SDS011;6544;51.666;6.634;2022-08-19T01:55:55;10.30;;;9.30;;
12958;SDS011;6544;51.666;6.634;2022-08-19T01:58:26;11.13;;;9.07;;
12958;SDS011;6544;51.666;6.634;2022-08-19T02:00:56;9.73;;;8.70;;
12958;SDS011;6544;51.666;6.634;2022-08-19T02:03:24;10.75;;;9.65;;
12958;SDS011;6544;51.666;6.634;2022-08-19T02:05:54;12.73;;;9.25;;
12958;SDS011;6544;51.666;6.634;2022-08-19T02:08:21;12.07;;;10.82;;
12958;SDS011;6544;51.666;6.634;2022-08-19T02:10:48;10.77;;;8.70;;
12958;SDS011;6544;51.666;6.634;2022-08-19T02:13:16;11.82;;;10.65;;
12958;SDS011;6544;51.666;6.634;2022-08-19T02:15:44;11.73;;;9.40;;
12958;SDS011;6544;51.666;6.634;2022-08-19T02:18:11;10.25;;;8.70;;
12958;SDS011;6544;51.666;6.634;2022-08-19T02:20:39;11.30;;;10.10;;
12958;SDS011;6544;51.666;6.634;2022-08-19T02:23:08;11.75;;;10.60;;
12958;SDS011;6544;51.666;6.634;2022-08-19T02:25:37;9.73;;;8.70;;
12958;SDS011;6544;51.666;6.634;2022-08-19T02:28:04;11.63;;;10.55;;
12958;SDS011;6544;51.666;6.634;2022-08-19T02:30:31;11.55;;;10.38;;
12958;SDS011;6544;51.666;6.634;2022-08-19T02:33:00;10.68;;;9.63;;
12958;SDS011;6544;51.666;6.634;2022-08-19T02:35:27;9.80;;;8.90;;
12958;SDS011;6544;51.666;6.634;2022-08-19T02:37:53;13.00;;;9.43;;
12958;SDS011;6544;51.666;6.634;2022-08-19T02:40:38;11.13;;;10.02;;
12958;SDS011;6544;51.666;6.634;2022-08-19T02:43:05;10.15;;;9.15;;
12958;SDS011;6544;51.666;6.634;2022-08-19T02:45:33;10.85;;;9.70;;
12958;SDS011;6544;51.666;6.634;2022-08-19T02:48:03;9.35;;;8.55;;
12958;SDS011;6544;51.666;6.634;2022-08-19T02:50:30;11.27;;;10.13;;
12958;SDS011;6544;51.666;6.634;2022-08-19T02:52:57;9.02;;;8.23;;
12958;SDS011;6544;51.666;6.634;2022-08-19T02:55:24;10.30;;;9.20;;
12958;SDS011;6544;51.666;6.634;2022-08-19T02:57:51;10.15;;;8.90;;
12958;SDS011;6544;51.666;6.634;2022-08-19T03:00:18;12.00;;;9.35;;
12958;SDS011;6544;51.666;6.634;2022-08-19T03:02:45;13.32;;;10.55;;
12958;SDS011;6544;51.666;6.634;2022-08-19T03:05:15;9.27;;;8.35;;
12958;SDS011;6544;51.666;6.634;2022-08-19T03:07:42;11.73;;;10.60;;
12958;SDS011;6544;51.666;6.634;2022-08-19T03:10:10;11.50;;;10.40;;
12958;SDS011;6544;51.666;6.634;2022-08-19T03:12:37;10.07;;;8.93;;
12958;SDS011;6544;51.666;6.634;2022-08-19T03:15:05;10.70;;;9.65;;
12958;SDS011;6544;51.666;6.634;2022-08-19T03:17:34;11.88;;;10.68;;
12958;SDS011;6544;51.666;6.634;2022-08-19T03:20:01;11.00;;;9.35;;
12958;SDS011;6544;51.666;6.634;2022-08-19T03:22:30;10.95;;;9.10;;
12958;SDS011;6544;51.666;6.634;2022-08-19T03:24:57;10.43;;;9.45;;
12958;SDS011;6544;51.666;6.634;2022-08-19T03:27:24;10.32;;;9.32;;
12958;SDS011;6544;51.666;6.634;2022-08-19T03:29:51;9.95;;;8.95;;
12958;SDS011;6544;51.666;6.634;2022-08-19T03:32:18;11.88;;;9.55;;
12958;SDS011;6544;51.666;6.634;2022-08-19T03:34:46;10.55;;;9.02;;
12958;SDS011;6544;51.666;6.634;2022-08-19T03:37:15;12.00;;;9.55;;
12958;SDS011;6544;51.666;6.634;2022-08-19T03:39:44;10.10;;;9.10;;
12958;SDS011;6544;51.666;6.634;2022-08-19T03:42:11;10.48;;;9.35;;
12958;SDS011;6544;51.666;6.634;2022-08-19T03:44:38;11.55;;;10.45;;
12958;SDS011;6544;51.666;6.634;2022-08-19T03:47:07;11.75;;;10.65;;
12958;SDS011;6544;51.666;6.634;2022-08-19T03:49:34;12.48;;;11.25;;
12958;SDS011;6544;51.666;6.634;2022-08-19T03:52:01;10.63;;;9.52;;
12958;SDS011;6544;51.666;6.634;2022-08-19T03:54:33;10.55;;;9.50;;
12958;SDS011;6544;51.666;6.634;2022-08-19T03:57:02;10.35;;;9.40;;
12958;SDS011;6544;51.666;6.634;2022-08-19T03:59:30;12.50;;;11.48;;
12958;SDS011;6544;51.666;6.634;2022-08-19T04:02:01;12.73;;;10.70;;
12958;SDS011;6544;51.666;6.634;2022-08-19T04:04:33;12.55;;;11.32;;
12958;SDS011;6544;51.666;6.634;2022-08-19T04:07:01;13.35;;;12.05;;
12958;SDS011;6544;51.666;6.634;2022-08-19T04:09:28;12.27;;;10.85;;
12958;SDS011;6544;51.666;6.634;2022-08-19T04:11:55;17.25;;;13.20;;
12958;SDS011;6544;51.666;6.634;2022-08-19T04:14:27;12.45;;;11.18;;
12958;SDS011;6544;51.666;6.634;2022-08-19T04:16:55;13.35;;;11.98;;
12958;SDS011;6544;51.666;6.634;2022-08-19T04:19:23;16.58;;;14.98;;
12958;SDS011;6544;51.666;6.634;2022-08-19T04:21:51;18.63;;;15.68;;
12958;SDS011;6544;51.666;6.634;2022-08-19T04:24:20;15.40;;;13.93;;
12958;SDS011;6544;51.666;6.634;2022-08-19T04:26:48;14.95;;;13.45;;
12958;SDS011;6544;51.666;6.634;2022-08-19T04:29:16;17.15;;;13.98;;
12958;SDS011;6544;51.666;6.634;2022-08-19T04:31:48;11.77;;;10.68;;
12958;SDS011;6544;51.666;6.634;2022-08-19T04:34:16;16.58;;;14.02;;
12958;SDS011;6544;51.666;6.634;2022-08-19T04:36:47;13.32;;;12.02;;
12958;SDS011;6544;51.666;6.634;2022-08-19T04:39:18;14.95;;;12.32;;
12958;SDS011;6544;51.666;6.634;2022-08-19T04:41:47;14.75;;;13.07;;
12958;SDS011;6544;51.666;6.634;2022-08-19T04:44:31;13.55;;;12.15;;
12958;SDS011;6544;51.666;6.634;2022-08-19T04:47:01;18.88;;;12.75;;
12958;SDS011;6544;51.666;6.634;2022-08-19T04:49:30;13.63;;;12.27;;
12958;SDS011;6544;51.666;6.634;2022-08-19T04:51:57;15.40;;;12.25;;
12958;SDS011;6544;51.666;6.634;2022-08-19T04:54:25;16.08;;;12.18;;
12958;SDS011;6544;51.666;6.634;2022-08-19T04:56:52;13.05;;;11.60;;
12958;SDS011;6544;51.666;6.634;2022-08-19T04:59:19;13.75;;;11.57;;
12958;SDS011;6544;51.666;6.634;2022-08-19T05:01:47;14.18;;;11.60;;
12958;SDS011;6544;51.666;6.634;2022-08-19T05:04:17;18.13;;;11.57;;
12958;SDS011;6544;51.666;6.634;2022-08-19T05:06:45;13.52;;;12.15;;
12958;SDS011;6544;51.666;6.634;2022-08-19T05:09:13;16.20;;;12.40;;
12958;SDS011;6544;51.666;6.634;2022-08-19T05:11:40;15.68;;;12.15;;
12958;SDS011;6544;51.666;6.634;2022-08-19T05:14:08;16.85;;;13.07;;
12958;SDS011;6544;51.666;6.634;2022-08-19T05:16:37;19.98;;;13.63;;
12958;SDS011;6544;51.666;6.634;2022-08-19T05:19:05;15.20;;;11.38;;
12958;SDS011;6544;51.666;6.634;2022-08-19T05:21:50;20.08;;;14.07;;
12958;SDS011;6544;51.666;6.634;2022-08-19T05:24:43;15.07;;;11.50;;
12958;SDS011;6544;51.666;6.634;2022-08-19T05:27:10;17.15;;;12.30;;
12958;SDS011;6544;51.666;6.634;2022-08-19T05:29:37;18.70;;;13.85;;
12958;SDS011;6544;51.666;6.634;2022-08-19T05:32:04;22.27;;;12.00;;
12958;SDS011;6544;51.666;6.634;2022-08-19T05:34:33;18.25;;;11.65;;
12958;SDS011;6544;51.666;6.634;2022-08-19T05:37:02;19.85;;;12.65;;
12958;SDS011;6544;51.666;6.634;2022-08-19T05:39:31;22.38;;;13.85;;
12958;SDS011;6544;51.666;6.634;2022-08-19T05:42:00;19.48;;;11.07;;
12958;SDS011;6544;51.666;6.634;2022-08-19T05:44:30;26.00;;;12.65;;
12958;SDS011;6544;51.666;6.634;2022-08-19T05:46:59;20.52;;;11.77;;
12958;SDS011;6544;51.666;6.634;2022-08-19T05:49:28;20.77;;;13.57;;
12958;SDS011;6544;51.666;6.634;2022-08-19T05:51:55;15.13;;;12.38;;
12958;SDS011;6544;51.666;6.634;2022-08-19T05:54:25;16.05;;;14.25;;
12958;SDS011;6544;51.666;6.634;2022-08-19T05:56:53;16.25;;;14.25;;
12958;SDS011;6544;51.666;6.634;2022-08-19T05:59:20;14.45;;;12.95;;
12958;SDS011;6544;51.666;6.634;2022-08-19T06:01:49;24.27;;;18.83;;
12958;SDS011;6544;51.666;6.634;2022-08-19T06:04:17;21.65;;;17.60;;
12958;SDS011;6544;51.666;6.634;2022-08-19T06:06:45;21.42;;;16.30;;
12958;SDS011;6544;51.666;6.634;2022-08-19T06:09:12;18.55;;;16.65;;
12958;SDS011;6544;51.666;6.634;2022-08-19T06:11:41;22.25;;;17.60;;
12958;SDS011;6544;51.666;6.634;2022-08-19T06:14:11;21.63;;;19.42;;
12958;SDS011;6544;51.666;6.634;2022-08-19T06:16:41;22.08;;;19.83;;
12958;SDS011;6544;51.666;6.634;2022-08-19T06:19:11;19.08;;;17.08;;
12958;SDS011;6544;51.666;6.634;2022-08-19T06:21:41;18.88;;;16.58;;
12958;SDS011;6544;51.666;6.634;2022-08-19T06:24:10;25.63;;;19.95;;
12958;SDS011;6544;51.666;6.634;2022-08-19T06:26:40;23.75;;;20.23;;
12958;SDS011;6544;51.666;6.634;2022-08-19T06:29:10;22.92;;;20.58;;
12958;SDS011;6544;51.666;6.634;2022-08-19T06:31:40;23.42;;;19.77;;
12958;SDS011;6544;51.666;6.634;2022-08-19T06:34:08;25.20;;;20.10;;
12958;SDS011;6544;51.666;6.634;2022-08-19T06:36:37;26.55;;;22.83;;
12958;SDS011;6544;51.666;6.634;2022-08-19T06:39:08;23.80;;;20.50;;
12958;SDS011;6544;51.666;6.634;2022-08-19T06:41:38;26.40;;;23.85;;
12958;SDS011;6544;51.666;6.634;2022-08-19T06:44:08;29.48;;;26.35;;
12958;SDS011;6544;51.666;6.634;2022-08-19T06:46:36;24.77;;;22.23;;
12958;SDS011;6544;51.666;6.634;2022-08-19T06:49:04;32.55;;;29.05;;
12958;SDS011;6544;51.666;6.634;2022-08-19T06:51:31;32.50;;;29.00;;
12958;SDS011;6544;51.666;6.634;2022-08-19T06:53:59;27.38;;;22.70;;
12958;SDS011;6544;51.666;6.634;2022-08-19T06:56:27;30.65;;;27.35;;
12958;SDS011;6544;51.666;6.634;2022-08-19T06:58:58;33.30;;;28.23;;
12958;SDS011;6544;51.666;6.634;2022-08-19T07:01:27;25.85;;;22.83;;
12958;SDS011;6544;51.666;6.634;2022-08-19T07:03:54;32.97;;;26.88;;
12958;SDS011;6544;51.666;6.634;2022-08-19T07:06:22;39.28;;;34.65;;
12958;SDS011;6544;51.666;6.634;2022-08-19T07:08:49;41.83;;;36.13;;
12958;SDS011;6544;51.666;6.634;2022-08-19T07:11:16;39.25;;;34.63;;
12958;SDS011;6544;51.666;6.634;2022-08-19T07:13:45;35.03;;;31.00;;
12958;SDS011;6544;51.666;6.634;2022-08-19T07:16:17;35.00;;;30.25;;
12958;SDS011;6544;51.666;6.634;2022-08-19T07:18:47;29.67;;;26.20;;
12958;SDS011;6544;51.666;6.634;2022-08-19T07:21:15;30.33;;;26.23;;
12958;SDS011;6544;51.666;6.634;2022-08-19T07:23:44;34.40;;;27.73;;
12958;SDS011;6544;51.666;6.634;2022-08-19T07:26:12;33.28;;;28.95;;
12958;SDS011;6544;51.666;6.634;2022-08-19T07:28:41;38.92;;;30.88;;
12958;SDS011;6544;51.666;6.634;2022-08-19T07:31:10;39.70;;;33.90;;
12958;SDS011;6544;51.666;6.634;2022-08-19T07:33:38;32.67;;;27.38;;
12958;SDS011;6544;51.666;6.634;2022-08-19T07:36:07;33.30;;;28.55;;
12958;SDS011;6544;51.666;6.634;2022-08-19T07:38:36;33.05;;;29.67;;
12958;SDS011;6544;51.666;6.634;2022-08-19T07:41:04;32.25;;;27.13;;
12958;SDS011;6544;51.666;6.634;2022-08-19T07:43:32;31.30;;;28.00;;
12958;SDS011;6544;51.666;6.634;2022-08-19T07:45:59;33.53;;;28.42;;
12958;SDS011;6544;51.666;6.634;2022-08-19T07:48:27;32.60;;;29.15;;
12958;SDS011;6544;51.666;6.634;2022-08-19T07:50:54;33.70;;;27.83;;
12958;SDS011;6544;51.666;6.634;2022-08-19T07:53:24;30.77;;;27.02;;
12958;SDS011;6544;51.666;6.634;2022-08-19T07:55:51;35.33;;;28.90;;
12958;SDS011;6544;51.666;6.634;2022-08-19T07:58:19;31.73;;;27.63;;
12958;SDS011;6544;51.666;6.634;2022-08-19T08:00:47;30.70;;;26.55;;
12958;SDS011;6544;51.666;6.634;2022-08-19T08:03:16;31.15;;;27.58;;
12958;SDS011;6544;51.666;6.634;2022-08-19T08:05:44;25.73;;;22.88;;
12958;SDS011;6544;51.666;6.634;2022-08-19T08:08:31;28.35;;;21.88;;
12958;SDS011;6544;51.666;6.634;2022-08-19T08:11:15;23.40;;;20.48;;
12958;SDS011;6544;51.666;6.634;2022-08-19T08:13:44;27.45;;;24.27;;
12958;SDS011;6544;51.666;6.634;2022-08-19T08:16:11;30.75;;;27.50;;
12958;SDS011;6544;51.666;6.634;2022-08-19T08:18:38;29.60;;;26.42;;
12958;SDS011;6544;51.666;6.634;2022-08-19T08:21:07;25.85;;;21.08;;
12958;SDS011;6544;51.666;6.634;2022-08-19T08:23:36;25.25;;;22.55;;
12958;SDS011;6544;51.666;6.634;2022-08-19T08:26:03;25.05;;;21.27;;
12958;SDS011;6544;51.666;6.634;2022-08-19T08:28:30;30.77;;;22.90;;
12958;SDS011;6544;51.666;6.634;2022-08-19T08:30:57;26.15;;;23.42;;
12958;SDS011;6544;51.666;6.634;2022-08-19T08:33:25;26.23;;;23.40;;
12958;SDS011;6544;51.666;6.634;2022-08-19T08:35:54;33.17;;;24.25;;
12958;SDS011;6544;51.666;6.634;2022-08-19T08:38:21;26.92;;;22.48;;
12958;SDS011;6544;51.666;6.634;2022-08-19T08:40:50;25.40;;;22.13;;
12958;SDS011;6544;51.666;6.634;2022-08-19T08:43:23;24.13;;;21.48;;
12958;SDS011;6544;51.666;6.634;2022-08-19T08:45:55;26.77;;;21.83;;
12958;SDS011;6544;51.666;6.634;2022-08-19T08:48:30;32.05;;;23.73;;
12958;SDS011;6544;51.666;6.634;2022-08-19T08:51:03;33.28;;;28.65;;
12958;SDS011;6544;51.666;6.634;2022-08-19T08:53:33;24.45;;;21.52;;
12958;SDS011;6544;51.666;6.634;2022-08-19T08:56:03;29.27;;;24.95;;
12958;SDS011;6544;51.666;6.634;2022-08-19T09:01:18;26.63;;;22.65;;
12958;SDS011;6544;51.666;6.634;2022-08-19T09:03:45;27.15;;;21.35;;
12958;SDS011;6544;51.666;6.634;2022-08-19T09:06:14;27.00;;;21.25;;
12958;SDS011;6544;51.666;6.634;2022-08-19T09:08:53;22.77;;;18.10;;
12958;SDS011;6544;51.666;6.634;2022-08-19T09:11:31;21.33;;;17.88;;
12958;SDS011;6544;51.666;6.634;2022-08-19T09:14:11;19.33;;;17.17;;
12958;SDS011;6544;51.666;6.634;2022-08-19T09:16:45;16.20;;;14.02;;
12958;SDS011;6544;51.666;6.634;2022-08-19T09:19:13;20.40;;;16.65;;
12958;SDS011;6544;51.666;6.634;2022-08-19T09:21:42;19.27;;;17.08;;
12958;SDS011;6544;51.666;6.634;2022-08-19T09:24:10;20.92;;;17.65;;
12958;SDS011;6544;51.666;6.634;2022-08-19T09:26:38;26.77;;;21.05;;
12958;SDS011;6544;51.666;6.634;2022-08-19T09:29:05;22.20;;;18.38;;
12958;SDS011;6544;51.666;6.634;2022-08-19T09:31:34;23.40;;;18.75;;
12958;SDS011;6544;51.666;6.634;2022-08-19T09:34:01;25.80;;;19.45;;
12958;SDS011;6544;51.666;6.634;2022-08-19T09:36:29;20.92;;;18.65;;
12958;SDS011;6544;51.666;6.634;2022-08-19T09:38:58;21.45;;;18.13;;
12958;SDS011;6544;51.666;6.634;2022-08-19T09:41:26;26.98;;;18.80;;
12958;SDS011;6544;51.666;6.634;2022-08-19T09:43:55;21.40;;;18.00;;
12958;SDS011;6544;51.666;6.634;2022-08-19T09:46:23;26.70;;;21.00;;
12958;SDS011;6544;51.666;6.634;2022-08-19T09:48:53;22.58;;;20.05;;
12958;SDS011;6544;51.666;6.634;2022-08-19T09:51:24;24.45;;;20.15;;
12958;SDS011;6544;51.666;6.634;2022-08-19T09:53:53;25.73;;;21.92;;
12958;SDS011;6544;51.666;6.634;2022-08-19T09:56:21;28.45;;;23.42;;
12958;SDS011;6544;51.666;6.634;2022-08-19T09:58:49;31.85;;;23.67;;
12958;SDS011;6544;51.666;6.634;2022-08-19T10:01:18;29.08;;;23.70;;
12958;SDS011;6544;51.666;6.634;2022-08-19T10:03:47;29.23;;;23.00;;
12958;SDS011;6544;51.666;6.634;2022-08-19T10:06:16;31.20;;;25.02;;
12958;SDS011;6544;51.666;6.634;2022-08-19T10:08:44;26.70;;;23.15;;
12958;SDS011;6544;51.666;6.634;2022-08-19T10:11:11;28.02;;;23.27;;
12958;SDS011;6544;51.666;6.634;2022-08-19T10:13:41;26.50;;;20.85;;
12958;SDS011;6544;51.666;6.634;2022-08-19T10:16:10;26.63;;;20.95;;
12958;SDS011;6544;51.666;6.634;2022-08-19T10:18:39;24.67;;;20.88;;
12958;SDS011;6544;51.666;6.634;2022-08-19T10:21:09;26.30;;;22.20;;
12958;SDS011;6544;51.666;6.634;2022-08-19T10:23:39;24.90;;;20.83;;
12958;SDS011;6544;51.666;6.634;2022-08-19T10:26:10;23.23;;;19.13;;
12958;SDS011;6544;51.666;6.634;2022-08-19T10:28:38;25.25;;;20.27;;
12958;SDS011;6544;51.666;6.634;2022-08-19T10:31:05;20.23;;;17.90;;
12958;SDS011;6544;51.666;6.634;2022-08-19T10:33:33;20.05;;;17.58;;
12958;SDS011;6544;51.666;6.634;2022-08-19T10:36:03;21.20;;;18.85;;
12958;SDS011;6544;51.666;6.634;2022-08-19T10:38:31;20.83;;;17.92;;
12958;SDS011;6544;51.666;6.634;2022-08-19T10:41:05;21.33;;;15.98;;
12958;SDS011;6544;51.666;6.634;2022-08-19T10:43:33;17.60;;;14.00;;
12958;SDS011;6544;51.666;6.634;2022-08-19T10:46:03;16.58;;;14.27;;
12958;SDS011;6544;51.666;6.634;2022-08-19T10:48:31;14.55;;;12.02;;
12958;SDS011;6544;51.666;6.634;2022-08-19T10:50:58;14.23;;;12.73;;
12958;SDS011;6544;51.666;6.634;2022-08-19T10:53:44;15.73;;;10.73;;
12958;SDS011;6544;51.666;6.634;2022-08-19T10:56:11;14.57;;;11.23;;
12958;SDS011;6544;51.666;6.634;2022-08-19T10:58:56;11.93;;;9.85;;
12958;SDS011;6544;51.666;6.634;2022-08-19T11:01:23;13.98;;;10.55;;
12958;SDS011;6544;51.666;6.634;2022-08-19T11:03:51;11.63;;;9.48;;
12958;SDS011;6544;51.666;6.634;2022-08-19T11:06:18;8.55;;;7.18;;
12958;SDS011;6544;51.666;6.634;2022-08-19T11:08:46;7.75;;;6.68;;
12958;SDS011;6544;51.666;6.634;2022-08-19T11:11:13;11.43;;;8.27;;
12958;SDS011;6544;51.666;6.634;2022-08-19T11:13:41;10.15;;;7.40;;
12958;SDS011;6544;51.666;6.634;2022-08-19T11:16:10;8.73;;;7.00;;
12958;SDS011;6544;51.666;6.634;2022-08-19T11:18:40;11.93;;;6.50;;
12958;SDS011;6544;51.666;6.634;2022-08-19T11:21:09;12.20;;;10.73;;
12958;SDS011;6544;51.666;6.634;2022-08-19T11:23:39;9.13;;;6.63;;
12958;SDS011;6544;51.666;6.634;2022-08-19T11:26:08;10.45;;;7.82;;
12958;SDS011;6544;51.666;6.634;2022-08-19T11:28:35;11.68;;;8.00;;
12958;SDS011;6544;51.666;6.634;2022-08-19T11:31:02;14.32;;;10.80;;
12958;SDS011;6544;51.666;6.634;2022-08-19T11:33:29;13.32;;;8.02;;
12958;SDS011;6544;51.666;6.634;2022-08-19T11:35:57;9.05;;;7.68;;
12958;SDS011;6544;51.666;6.634;2022-08-19T11:38:25;11.77;;;9.15;;
12958;SDS011;6544;51.666;6.634;2022-08-19T11:40:54;13.32;;;9.30;;
12958;SDS011;6544;51.666;6.634;2022-08-19T11:43:23;10.43;;;8.48;;
12958;SDS011;6544;51.666;6.634;2022-08-19T11:45:51;12.63;;;9.52;;
12958;SDS011;6544;51.666;6.634;2022-08-19T11:48:18;11.75;;;7.90;;
12958;SDS011;6544;51.666;6.634;2022-08-19T11:50:47;8.60;;;7.53;;
12958;SDS011;6544;51.666;6.634;2022-08-19T11:53:14;11.25;;;7.60;;
12958;SDS011;6544;51.666;6.634;2022-08-19T11:55:41;11.55;;;7.35;;
12958;SDS011;6544;51.666;6.634;2022-08-19T11:58:09;14.48;;;9.60;;
12958;SDS011;6544;51.666;6.634;2022-08-19T12:00:39;11.15;;;8.48;;
12958;SDS011;6544;51.666;6.634;2022-08-19T12:03:06;13.18;;;6.93;;
12958;SDS011;6544;51.666;6.634;2022-08-19T12:05:33;8.73;;;6.45;;
12958;SDS011;6544;51.666;6.634;2022-08-19T12:08:02;12.25;;;7.38;;
12958;SDS011;6544;51.666;6.634;2022-08-19T12:10:30;10.18;;;7.13;;
12958;SDS011;6544;51.666;6.634;2022-08-19T12:12:57;10.02;;;7.43;;
12958;SDS011;6544;51.666;6.634;2022-08-19T12:15:25;8.23;;;6.72;;
12958;SDS011;6544;51.666;6.634;2022-08-19T12:17:55;11.75;;;6.78;;
12958;SDS011;6544;51.666;6.634;2022-08-19T12:20:23;8.73;;;5.80;;
12958;SDS011;6544;51.666;6.634;2022-08-19T12:22:50;7.43;;;5.93;;
12958;SDS011;6544;51.666;6.634;2022-08-19T12:25:17;9.40;;;6.18;;
12958;SDS011;6544;51.666;6.634;2022-08-19T12:27:45;10.07;;;6.22;;
12958;SDS011;6544;51.666;6.634;2022-08-19T12:30:13;6.60;;;5.25;;
12958;SDS011;6544;51.666;6.634;2022-08-19T12:32:40;7.40;;;6.45;;
12958;SDS011;6544;51.666;6.634;2022-08-19T12:35:09;9.57;;;6.07;;
12958;SDS011;6544;51.666;6.634;2022-08-19T12:37:36;9.02;;;5.80;;
12958;SDS011;6544;51.666;6.634;2022-08-19T12:40:04;7.72;;;6.25;;
12958;SDS011;6544;51.666;6.634;2022-08-19T12:42:31;14.85;;;11.10;;
12958;SDS011;6544;51.666;6.634;2022-08-19T12:44:58;8.70;;;5.68;;
12958;SDS011;6544;51.666;6.634;2022-08-19T12:47:25;11.35;;;6.97;;
12958;SDS011;6544;51.666;6.634;2022-08-19T12:49:52;10.20;;;6.47;;
12958;SDS011;6544;51.666;6.634;2022-08-19T12:52:20;11.32;;;6.70;;
12958;SDS011;6544;51.666;6.634;2022-08-19T12:54:48;10.88;;;7.75;;
12958;SDS011;6544;51.666;6.634;2022-08-19T12:57:15;12.13;;;9.48;;
12958;SDS011;6544;51.666;6.634;2022-08-19T12:59:42;10.85;;;9.07;;
12958;SDS011;6544;51.666;6.634;2022-08-19T13:02:09;12.43;;;8.73;;
12958;SDS011;6544;51.666;6.634;2022-08-19T13:04:36;13.63;;;9.05;;
12958;SDS011;6544;51.666;6.634;2022-08-19T13:07:06;15.23;;;11.00;;
12958;SDS011;6544;51.666;6.634;2022-08-19T13:09:35;13.50;;;9.30;;
12958;SDS011;6544;51.666;6.634;2022-08-19T13:12:02;14.60;;;11.77;;
12958;SDS011;6544;51.666;6.634;2022-08-19T13:14:33;16.15;;;12.82;;
12958;SDS011;6544;51.666;6.634;2022-08-19T13:17:03;13.10;;;11.80;;
12958;SDS011;6544;51.666;6.634;2022-08-19T13:19:30;12.63;;;11.30;;
12958;SDS011;6544;51.666;6.634;2022-08-19T13:21:57;16.98;;;13.52;;
12958;SDS011;6544;51.666;6.634;2022-08-19T13:24:24;18.27;;;12.95;;
12958;SDS011;6544;51.666;6.634;2022-08-19T13:26:52;15.18;;;12.40;;
12958;SDS011;6544;51.666;6.634;2022-08-19T13:29:19;14.35;;;11.23;;
12958;SDS011;6544;51.666;6.634;2022-08-19T13:32:04;16.60;;;12.27;;
12958;SDS011;6544;51.666;6.634;2022-08-19T13:34:48;14.82;;;11.27;;
12958;SDS011;6544;51.666;6.634;2022-08-19T13:37:15;13.32;;;10.27;;
12958;SDS011;6544;51.666;6.634;2022-08-19T13:40:02;15.27;;;12.05;;
12958;SDS011;6544;51.666;6.634;2022-08-19T13:42:31;15.43;;;12.02;;
12958;SDS011;6544;51.666;6.634;2022-08-19T13:44:58;14.77;;;12.40;;
12958;SDS011;6544;51.666;6.634;2022-08-19T13:47:25;14.82;;;12.35;;
12958;SDS011;6544;51.666;6.634;2022-08-19T13:49:52;10.52;;;8.77;;
12958;SDS011;6544;51.666;6.634;2022-08-19T13:52:19;9.85;;;8.85;;
12958;SDS011;6544;51.666;6.634;2022-08-19T13:54:46;12.07;;;9.95;;
12958;SDS011;6544;51.666;6.634;2022-08-19T13:57:13;13.02;;;11.30;;
12958;SDS011;6544;51.666;6.634;2022-08-19T13:59:41;12.65;;;11.20;;
12958;SDS011;6544;51.666;6.634;2022-08-19T14:02:08;10.65;;;9.23;;
12958;SDS011;6544;51.666;6.634;2022-08-19T14:04:35;11.82;;;8.98;;
12958;SDS011;6544;51.666;6.634;2022-08-19T14:07:03;10.90;;;8.68;;
12958;SDS011;6544;51.666;6.634;2022-08-19T14:09:30;14.98;;;8.90;;
12958;SDS011;6544;51.666;6.634;2022-08-19T14:11:57;12.10;;;8.95;;
12958;SDS011;6544;51.666;6.634;2022-08-19T14:14:24;10.27;;;7.88;;
12958;SDS011;6544;51.666;6.634;2022-08-19T14:16:52;15.65;;;11.35;;
12958;SDS011;6544;51.666;6.634;2022-08-19T14:19:19;11.35;;;8.30;;
12958;SDS011;6544;51.666;6.634;2022-08-19T14:21:46;12.77;;;9.50;;
12958;SDS011;6544;51.666;6.634;2022-08-19T14:24:14;17.90;;;12.05;;
12958;SDS011;6544;51.666;6.634;2022-08-19T14:26:40;14.18;;;10.93;;
12958;SDS011;6544;51.666;6.634;2022-08-19T14:29:07;14.00;;;10.57;;
12958;SDS011;6544;51.666;6.634;2022-08-19T14:31:34;12.80;;;10.27;;
12958;SDS011;6544;51.666;6.634;2022-08-19T14:34:04;13.65;;;11.25;;
12958;SDS011;6544;51.666;6.634;2022-08-19T14:36:30;12.50;;;10.60;;
12958;SDS011;6544;51.666;6.634;2022-08-19T14:38:59;15.00;;;11.23;;
12958;SDS011;6544;51.666;6.634;2022-08-19T14:41:27;13.65;;;10.90;;
12958;SDS011;6544;51.666;6.634;2022-08-19T14:43:55;15.68;;;12.43;;
12958;SDS011;6544;51.666;6.634;2022-08-19T14:46:23;14.73;;;12.20;;
12958;SDS011;6544;51.666;6.634;2022-08-19T14:48:52;15.98;;;11.90;;
12958;SDS011;6544;51.666;6.634;2022-08-19T14:51:21;13.25;;;9.10;;
12958;SDS011;6544;51.666;6.634;2022-08-19T14:53:51;13.63;;;7.93;;